Αναφορές Αεροδρομίων

 

KSJC - San Jose, California, USA
Distance from station: ΒΑ 14km
Ενημερώθηκε: 26/05/2024 12:53
Αίθριος
Αίθριος
 Ανεμος από ΒΒΑ
Ανεμος: ΒΒΑ 6 km/h
Θερμοκρασία: 12°C
Σημείο Δρόσου: 7°C
Υγρασία: 72%
Βαρόμετρο: 1017.3 hPa
Clouds: Αίθριος
Visibility: 16 km
2024/05/26 09:53 KSJC 260953Z AUTO 03003KT 10SM CLR 12/07 A3004 RMK AO2 SLP172 T01170067
KNUQ - Moffett Nas/Mtn, California, USA
Distance from station: Β 14km
Ενημερώθηκε: 26/05/2024 13:35
Μερικώς νεφελώδης
Μερικώς νεφελώδης
 Ανεμος από ΝΝΔ
Ανεμος: ΝΝΔ 6 km/h
Θερμοκρασία: 10°C
Σημείο Δρόσου: 6°C
Υγρασία: 76%
Βαρόμετρο: 1017.3 hPa
Clouds: Μερικώς νεφελώδης
Visibility: 16 km
Cloud details: Μερικώς νεφελώδης 640 m
Μερικώς νεφελώδης 823 m
Μερικώς νεφελώδης 975 m
2024/05/26 10:35 KNUQ 261035Z AUTO 20003KT 10SM SCT021 SCT027 SCT032 10/06 A3004 RMK AO2
 
KPAO - Palo Alto, California, USA
Distance from station: ΒΒΔ 23km
Ενημερώθηκε: 26/05/2024 06:47
NOT Current
Few Clouds
Few Clouds
 Ανεμος από ΔΒΔ
Ανεμος: ΔΒΔ 17 km/h
Θερμοκρασία: 12°C
Σημείο Δρόσου: 6°C
Υγρασία: 67%
Βαρόμετρο: 1017.9 hPa
Clouds: Few Clouds
Visibility: 16 km
Cloud details: Few Clouds 914 m
2024/05/26 03:47 KPAO 260347Z 29009KT 10SM FEW030 12/06 A3006 RMK LAST
KRHV - San Jose/Reid, California, USA
Distance from station: ΑΒΑ 19km
Ενημερώθηκε: 26/05/2024 07:55
NOT Current
Αίθριος
Αίθριος
 Ανεμος από calm
Ανεμος: Απνοια
Θερμοκρασία: 12°C
Σημείο Δρόσου: 8°C
Υγρασία: 77%
Βαρόμετρο: 1017.6 hPa
Clouds: Αίθριος
Visibility: 16 km
2024/05/26 04:55 KRHV 260455Z 00000KT 10SM SKC 12/08 A3005 RMK WIND VELOCITY AND DIRECTION ESTIMATED DUE TO EQUIPMENT OUTAGE. USING SJC ALTIMETER SETTINGS **LAST
 
KOAK - Oakland, California, USA
Distance from station: ΒΒΔ 50km
Ενημερώθηκε: 26/05/2024 12:53
Σχεδόν νεφελώδης
Σχεδόν νεφελώδης
 Ανεμος από ΔΝΔ
Ανεμος: ΔΝΔ 15 km/h
Θερμοκρασία: 11°C
Σημείο Δρόσου: 9°C
Υγρασία: 88%
Βαρόμετρο: 1017.9 hPa
Clouds: Σχεδόν νεφελώδης
Visibility: 16 km
Cloud details: Σχεδόν νεφελώδης 457 m
2024/05/26 09:53 KOAK 260953Z 24008KT 10SM BKN015 11/09 A3006 RMK AO2 SLP177 T01110089
KSQL - San Carlos Airpo, California, USA
Distance from station: ΒΔ 34km
Ενημερώθηκε: 26/05/2024 13:35
Αίθριος
Αίθριος
 Ανεμος από Ν
Ανεμος: Ν 6 km/h
Θερμοκρασία: 9°C
Σημείο Δρόσου: 7°C
Υγρασία: 87%
Βαρόμετρο: 1017.6 hPa
Clouds: Αίθριος
Visibility: 13 km
2024/05/26 10:35 KSQL 261035Z AUTO 18003KT 8SM CLR 09/07 A3005 RMK AO2
 
KSFO - San Francisco, California, USA
Distance from station: ΒΔ 49km
Ενημερώθηκε: 26/05/2024 12:56
Σχεδόν νεφελώδης
Σχεδόν νεφελώδης
 Ανεμος από Δ
Ανεμος: Δ 11 km/h
Θερμοκρασία: 11°C
Σημείο Δρόσου: 7°C
Υγρασία: 77%
Βαρόμετρο: 1017.3 hPa
Clouds: Σχεδόν νεφελώδης
Visibility: 16 km
Cloud details: Σχεδόν νεφελώδης 457 m
2024/05/26 09:56 KSFO 260956Z 26006KT 10SM BKN015 11/07 A3004 RMK AO2 SLP172 T01110072
KE16 - San Martin, California, USA
Distance from station: ΑΝΑ 43km
Ενημερώθηκε: 26/05/2024 13:35
Συννεφιά
Συννεφιά
 Ανεμος από calm
Ανεμος: Απνοια
Θερμοκρασία: 8°C
Σημείο Δρόσου: 6°C
Υγρασία: 87%
Βαρόμετρο: 1017.9 hPa
Clouds: Συννεφιά
Visibility: 16 km
Cloud details: Συννεφιά 549 m
2024/05/26 10:35 KE16 261035Z AUTO 00000KT 10SM OVC018 08/06 A3006 RMK AO2
 
KWVI - Watsonville, California, USA
Distance from station: ΝΝΑ 44km
Ενημερώθηκε: 26/05/2024 12:53
Συννεφιά
Συννεφιά
 Ανεμος από calm
Ανεμος: Απνοια
Θερμοκρασία: 9°C
Σημείο Δρόσου: 7°C
Υγρασία: 87%
Βαρόμετρο: 1017.6 hPa
Clouds: Συννεφιά
Visibility: 16 km
Cloud details: Συννεφιά 305 m
2024/05/26 09:53 KWVI 260953Z AUTO 00000KT 10SM OVC010 09/07 A3005 RMK AO2 SLP176 T00940072
KHAF - Half Moon Bay, California, USA
Distance from station: ΔΒΔ 50km
Ενημερώθηκε: 26/05/2024 13:35
Συννεφιά
Συννεφιά
 Ανεμος από ΒΔ
Ανεμος: ΒΔ 9 km/h
Θερμοκρασία: 10°C
Wind Chill: 9°C
Σημείο Δρόσου: 9°C
Υγρασία: 94%
Βαρόμετρο: 1017.6 hPa
Clouds: Συννεφιά
Visibility: 11 km
Cloud details: Συννεφιά 396 m
2024/05/26 10:35 KHAF 261035Z AUTO 31005KT 7SM OVC013 10/09 A3005 RMK AO2
 
KHWD - Hayward, California, USA
Distance from station: Β 44km
Ενημερώθηκε: 26/05/2024 12:54
Αίθριος
Αίθριος
 Ανεμος από Δ
Ανεμος: Δ 6 km/h
Θερμοκρασία: 12°C
Σημείο Δρόσου: 7°C
Υγρασία: 72%
Βαρόμετρο: 1017.3 hPa
Clouds: Αίθριος
Visibility: 16 km
2024/05/26 09:54 KHWD 260954Z AUTO 26003KT 10SM CLR 12/07 A3004 RMK AO2 SLP181 T01170072
KLVK - Livermore, California, USA
Distance from station: ΒΒΑ 51km
Ενημερώθηκε: 26/05/2024 12:53
Αίθριος
Αίθριος
 Ανεμος από calm
Ανεμος: Απνοια
Θερμοκρασία: 8°C
Σημείο Δρόσου: 6°C
Υγρασία: 87%
Βαρόμετρο: 1016.9 hPa
Clouds: Αίθριος
Visibility: 16 km
2024/05/26 09:53 KLVK 260953Z AUTO 00000KT 10SM CLR 08/06 A3003 RMK AO2 SLP168 T00830061